createdAt,value
2018-02-19T00:00:23.949Z,8.43
2018-02-19T00:02:53.924Z,8.52
2018-02-19T00:05:23.800Z,8.80
2018-02-19T00:07:53.441Z,10.88
2018-02-19T00:10:22.851Z,8.35
2018-02-19T00:12:52.646Z,9.18
2018-02-19T00:15:22.168Z,8.18
2018-02-19T00:17:52.795Z,8.90
2018-02-19T00:20:22.563Z,7.80
2018-02-19T00:22:52.040Z,9.25
2018-02-19T00:25:21.850Z,8.65
2018-02-19T00:27:51.957Z,8.73
2018-02-19T00:30:21.690Z,8.70
2018-02-19T00:32:51.790Z,9.98
2018-02-19T00:35:22.019Z,8.63
2018-02-19T00:37:51.758Z,7.60
2018-02-19T00:40:21.204Z,7.97
2018-02-19T00:42:51.132Z,8.13
2018-02-19T00:45:20.883Z,9.15
2018-02-19T00:47:50.802Z,7.53
2018-02-19T00:50:21.069Z,7.90
2018-02-19T00:52:50.883Z,8.00
2018-02-19T00:55:20.657Z,7.37
2018-02-19T00:57:51.213Z,7.40
2018-02-19T01:00:21.766Z,7.45
2018-02-19T01:02:51.882Z,6.87
2018-02-19T01:05:22.266Z,7.00
2018-02-19T01:07:52.123Z,6.90
2018-02-19T01:10:22.403Z,8.02
2018-02-19T01:12:52.243Z,7.53
2018-02-19T01:15:21.655Z,7.60
2018-02-19T01:17:51.088Z,7.62
2018-02-19T01:20:20.973Z,7.82
2018-02-19T01:22:50.915Z,22.42
2018-02-19T01:25:20.864Z,15.63
2018-02-19T01:27:51.209Z,27.17
2018-02-19T01:30:21.367Z,34.00
2018-02-19T01:32:51.287Z,37.65
2018-02-19T01:35:20.864Z,31.45
2018-02-19T01:37:50.381Z,18.10
2018-02-19T01:40:20.280Z,32.58
2018-02-19T01:42:50.105Z,19.08
2018-02-19T01:45:20.632Z,29.12
2018-02-19T01:47:50.486Z,11.30
2018-02-19T01:50:20.365Z,15.38
2018-02-19T01:52:50.081Z,21.15
2018-02-19T01:55:19.806Z,18.42
2018-02-19T01:57:49.527Z,12.02
2018-02-19T02:00:19.975Z,21.27
2018-02-19T02:02:49.901Z,17.00
2018-02-19T02:05:19.995Z,18.90
2018-02-19T02:07:50.774Z,17.95
2018-02-19T02:10:21.336Z,14.20
2018-02-19T02:12:51.794Z,14.55
2018-02-19T02:15:22.425Z,12.02
2018-02-19T02:17:52.174Z,13.52
2018-02-19T02:20:22.756Z,13.23
2018-02-19T02:22:52.515Z,12.40
2018-02-19T02:25:22.448Z,10.27
2018-02-19T02:27:53.065Z,12.05
2018-02-19T02:30:23.342Z,15.02
2018-02-19T02:32:52.983Z,12.73
2018-02-19T02:35:23.049Z,12.02
2018-02-19T02:37:52.517Z,13.43
2018-02-19T02:40:22.523Z,13.68
2018-02-19T02:42:52.066Z,12.37
2018-02-19T02:45:22.337Z,11.18
2018-02-19T02:47:52.634Z,13.00
2018-02-19T02:50:22.530Z,11.52
2018-02-19T02:52:52.251Z,12.82
2018-02-19T02:55:22.009Z,11.68
2018-02-19T02:57:51.913Z,11.65
2018-02-19T03:00:24.395Z,12.40
2018-02-19T03:02:56.473Z,11.32
2018-02-19T03:05:27.848Z,12.30
2018-02-19T03:07:57.684Z,10.48
2018-02-19T03:10:29.330Z,11.45
2018-02-19T03:12:59.969Z,11.43
2018-02-19T03:15:29.868Z,11.80
2018-02-19T03:17:59.643Z,10.60
2018-02-19T03:20:29.406Z,11.40
2018-02-19T03:22:59.220Z,11.95
2018-02-19T03:25:30.099Z,12.02
2018-02-19T03:27:59.955Z,13.00
2018-02-19T03:30:29.404Z,11.30
2018-02-19T03:32:59.447Z,12.00
2018-02-19T03:35:29.172Z,11.68
2018-02-19T03:37:59.029Z,11.15
2018-02-19T03:40:29.372Z,10.75
2018-02-19T03:43:00.557Z,11.60
2018-02-19T03:45:30.323Z,11.55
2018-02-19T03:48:00.018Z,13.93
2018-02-19T03:50:29.697Z,10.65
2018-02-19T03:52:59.672Z,11.63
2018-02-19T03:55:30.314Z,11.00
2018-02-19T03:57:59.779Z,11.43
2018-02-19T04:00:30.044Z,10.20
2018-02-19T04:03:00.395Z,11.38
2018-02-19T04:05:31.048Z,11.80
2018-02-19T04:08:00.930Z,11.12
2018-02-19T04:10:31.687Z,10.80
2018-02-19T04:13:02.501Z,10.82
2018-02-19T04:15:32.130Z,12.02
2018-02-19T04:18:01.584Z,13.15
2018-02-19T04:20:31.258Z,14.38
2018-02-19T04:23:01.119Z,12.18
2018-02-19T04:25:31.267Z,13.38
2018-02-19T04:28:01.088Z,12.93
2018-02-19T04:30:31.350Z,13.27
2018-02-19T04:33:00.874Z,13.32
2018-02-19T04:35:30.851Z,12.85
2018-02-19T04:38:00.550Z,13.13
2018-02-19T04:40:31.263Z,13.30
2018-02-19T04:43:01.131Z,12.23
2018-02-19T04:45:30.833Z,12.43
2018-02-19T04:48:01.794Z,12.02
2018-02-19T04:50:31.598Z,11.48
2018-02-19T04:53:02.225Z,13.45
2018-02-19T04:55:32.014Z,12.43
2018-02-19T04:58:02.052Z,12.32
2018-02-19T05:00:31.783Z,12.27
2018-02-19T05:03:01.277Z,11.48
2018-02-19T05:05:31.640Z,11.50
2018-02-19T05:08:01.630Z,11.23
2018-02-19T05:10:31.253Z,12.40
2018-02-19T05:13:01.009Z,11.25
2018-02-19T05:15:30.962Z,11.88
2018-02-19T05:18:00.641Z,14.57
2018-02-19T05:20:31.101Z,12.60
2018-02-19T05:23:01.418Z,11.68
2018-02-19T05:25:31.359Z,11.35
2018-02-19T05:28:01.031Z,11.15
2018-02-19T05:30:30.802Z,11.02
2018-02-19T05:33:01.216Z,11.60
2018-02-19T05:35:30.821Z,11.85
2018-02-19T05:38:01.358Z,9.25
2018-02-19T05:40:30.762Z,9.15
2018-02-19T05:43:00.220Z,8.55
2018-02-19T05:45:30.047Z,9.45
2018-02-19T05:47:59.860Z,7.60
2018-02-19T05:50:29.725Z,7.97
2018-02-19T05:52:59.464Z,9.32
2018-02-19T05:55:28.987Z,8.23
2018-02-19T05:57:58.610Z,8.75
2018-02-19T06:00:29.470Z,8.05
2018-02-19T06:02:59.350Z,7.82
2018-02-19T06:05:29.280Z,8.25
2018-02-19T06:07:58.682Z,11.77
2018-02-19T06:10:28.418Z,7.80
2018-02-19T06:12:58.851Z,8.52
2018-02-19T06:15:28.250Z,8.63
2018-02-19T06:17:57.939Z,8.52
2018-02-19T06:20:27.908Z,8.50
2018-02-19T06:22:57.331Z,7.68
2018-02-19T06:25:27.342Z,8.68
2018-02-19T06:27:57.005Z,8.35
2018-02-19T06:30:26.428Z,8.05
2018-02-19T06:32:55.841Z,8.88
2018-02-19T06:35:26.141Z,7.95
2018-02-19T06:37:56.844Z,8.48
2018-02-19T06:40:26.997Z,8.25
2018-02-19T06:42:56.502Z,9.15
2018-02-19T06:45:26.200Z,9.40
2018-02-19T06:47:55.635Z,9.05
2018-02-19T06:50:25.022Z,8.95
2018-02-19T06:52:55.118Z,8.57
2018-02-19T06:55:25.078Z,9.50
2018-02-19T06:57:54.758Z,8.50
2018-02-19T07:00:25.109Z,8.75
2018-02-19T07:02:55.043Z,8.88
2018-02-19T07:05:24.505Z,9.05
2018-02-19T07:07:54.226Z,9.15
2018-02-19T07:10:23.616Z,8.85
2018-02-19T07:12:53.082Z,8.70
2018-02-19T07:15:23.751Z,8.13
2018-02-19T07:17:53.461Z,8.90
2018-02-19T07:20:23.021Z,9.48
2018-02-19T07:22:53.121Z,8.02
2018-02-19T07:25:23.217Z,9.07
2018-02-19T07:27:53.661Z,8.82
2018-02-19T07:30:23.879Z,8.90
2018-02-19T07:32:53.781Z,9.40
2018-02-19T07:35:23.901Z,9.90
2018-02-19T07:38:08.712Z,10.05
2018-02-19T07:40:38.802Z,10.13
2018-02-19T07:43:08.710Z,10.73
2018-02-19T07:45:38.723Z,10.15
2018-02-19T07:48:08.638Z,10.30
2018-02-19T07:50:38.740Z,10.25
2018-02-19T07:53:08.149Z,13.15
2018-02-19T07:55:37.567Z,12.52
2018-02-19T07:58:07.262Z,11.90
2018-02-19T08:00:36.986Z,13.85
2018-02-19T08:03:07.682Z,13.25
2018-02-19T08:05:37.674Z,13.55
2018-02-19T08:08:07.152Z,12.82
2018-02-19T08:10:36.629Z,12.07
2018-02-19T08:13:06.620Z,12.25
2018-02-19T08:15:36.463Z,10.52
2018-02-19T08:18:06.629Z,12.85
2018-02-19T08:20:36.409Z,12.63
2018-02-19T08:23:06.518Z,12.07
2018-02-19T08:25:36.248Z,12.98
2018-02-19T08:28:06.703Z,12.35
2018-02-19T08:30:36.348Z,9.07
2018-02-19T08:33:05.901Z,9.07
2018-02-19T08:35:35.748Z,10.35
2018-02-19T08:38:05.154Z,10.60
2018-02-19T08:40:34.982Z,9.60
2018-02-19T08:43:05.068Z,10.40
2018-02-19T08:45:35.046Z,9.75
2018-02-19T08:48:04.868Z,9.10
2018-02-19T08:50:34.960Z,8.50
2018-02-19T08:53:04.743Z,9.50
2018-02-19T08:55:34.774Z,12.15
2018-02-19T08:58:04.711Z,8.52
2018-02-19T09:00:34.159Z,8.43
2018-02-19T09:03:04.178Z,10.35
2018-02-19T09:05:34.537Z,8.25
2018-02-19T09:08:03.969Z,8.80
2018-02-19T09:10:33.428Z,10.63
2018-02-19T09:13:03.487Z,8.97
2018-02-19T09:15:33.621Z,12.00
2018-02-19T09:18:03.566Z,10.33
2018-02-19T09:20:35.034Z,12.37
2018-02-19T09:23:04.779Z,8.87
2018-02-19T09:25:34.604Z,8.93
2018-02-19T09:28:05.456Z,9.50
2018-02-19T09:30:35.356Z,10.43
2018-02-19T09:33:05.631Z,8.80
2018-02-19T09:35:35.966Z,8.60
2018-02-19T09:38:05.458Z,10.97
2018-02-19T09:40:35.236Z,8.90
2018-02-19T09:43:05.161Z,9.70
2018-02-19T09:45:35.144Z,9.73
2018-02-19T09:48:05.201Z,8.37
2018-02-19T09:50:34.928Z,9.43
2018-02-19T09:53:04.693Z,8.93
2018-02-19T09:55:35.213Z,8.90
2018-02-19T09:58:04.978Z,11.20
2018-02-19T10:00:34.404Z,10.33
2018-02-19T10:03:03.842Z,7.70
2018-02-19T10:05:33.608Z,9.50
2018-02-19T10:08:03.276Z,9.77
2018-02-19T10:10:33.104Z,8.30
2018-02-19T10:13:02.866Z,7.73
2018-02-19T10:15:32.274Z,9.20
2018-02-19T10:18:02.711Z,10.23
2018-02-19T10:20:32.681Z,10.40
2018-02-19T10:23:02.422Z,9.07
2018-02-19T10:25:32.234Z,8.33
2018-02-19T10:28:01.826Z,11.40
2018-02-19T10:30:31.240Z,7.80
2018-02-19T10:33:01.267Z,8.97
2018-02-19T10:35:30.766Z,9.07
2018-02-19T10:38:02.868Z,12.40
2018-02-19T10:40:32.484Z,10.40
2018-02-19T10:43:02.004Z,8.17
2018-02-19T10:45:31.447Z,8.53
2018-02-19T10:48:02.818Z,8.50
2018-02-19T10:50:32.277Z,8.07
2018-02-19T10:53:02.717Z,9.10
2018-02-19T10:55:32.821Z,10.30
2018-02-19T10:58:02.398Z,9.13
2018-02-19T11:00:36.164Z,8.07
2018-02-19T11:03:06.768Z,7.30
2018-02-19T11:05:36.302Z,7.40
2018-02-19T11:08:06.033Z,9.70
2018-02-19T11:10:35.891Z,8.43
2018-02-19T11:13:06.164Z,8.80
2018-02-19T11:15:35.612Z,8.70
2018-02-19T11:18:05.624Z,8.27
2018-02-19T11:20:35.120Z,8.40
2018-02-19T11:23:04.582Z,8.03
2018-02-19T11:25:34.262Z,8.60
2018-02-19T11:28:04.051Z,9.13
2018-02-19T11:30:33.490Z,9.60
2018-02-19T11:33:03.786Z,8.77
2018-02-19T11:35:33.233Z,11.30
2018-02-19T11:38:02.868Z,9.60
2018-02-19T11:40:33.126Z,9.47
2018-02-19T11:43:02.545Z,14.20
2018-02-19T11:45:32.062Z,43.00
2018-02-19T11:48:02.263Z,12.47
2018-02-19T11:50:31.842Z,11.70
2018-02-19T11:53:01.298Z,8.87
2018-02-19T11:55:31.149Z,8.13
2018-02-19T11:58:01.021Z,9.80
2018-02-19T12:00:30.484Z,18.57
2018-02-19T12:03:00.864Z,10.10
2018-02-19T12:05:30.347Z,23.23
2018-02-19T12:08:00.250Z,9.20
2018-02-19T12:10:29.681Z,8.73
2018-02-19T12:12:59.186Z,7.90
2018-02-19T12:15:28.672Z,11.13
2018-02-19T12:17:58.393Z,34.63
2018-02-19T12:20:28.093Z,18.87
2018-02-19T12:22:57.525Z,13.97
2018-02-19T12:25:27.530Z,13.80
2018-02-19T12:27:57.130Z,12.40
2018-02-19T12:30:26.645Z,9.50
2018-02-19T12:32:56.593Z,9.20
2018-02-19T12:35:26.089Z,13.47
2018-02-19T12:37:56.128Z,13.50
2018-02-19T12:40:25.785Z,12.87
2018-02-19T12:42:55.219Z,10.30
2018-02-19T12:45:24.842Z,14.07
2018-02-19T12:47:54.601Z,13.13
2018-02-19T12:50:24.106Z,8.80
2018-02-19T12:52:53.609Z,13.03
2018-02-19T12:55:23.175Z,17.03
2018-02-19T12:57:52.677Z,11.60
2018-02-19T13:00:22.048Z,9.40
2018-02-19T13:02:51.791Z,12.47
2018-02-19T13:05:21.301Z,11.67
2018-02-19T13:07:51.160Z,8.60
2018-02-19T13:10:20.692Z,14.13
2018-02-19T13:12:50.156Z,7.10
2018-02-19T13:15:20.532Z,22.63
2018-02-19T13:17:50.280Z,10.67
2018-02-19T13:20:20.477Z,12.33
2018-02-19T13:22:50.189Z,9.27
2018-02-19T13:25:21.562Z,10.60
2018-02-19T13:27:51.240Z,15.73
2018-02-19T13:30:21.134Z,26.20
2018-02-19T13:32:50.583Z,19.93
2018-02-19T13:35:19.976Z,17.37
2018-02-19T13:37:50.286Z,15.53
2018-02-19T13:40:19.741Z,15.53
2018-02-19T13:42:49.153Z,19.73
2018-02-19T13:45:18.926Z,20.77
2018-02-19T13:47:48.809Z,13.33
2018-02-19T13:50:18.240Z,11.63
2018-02-19T13:52:49.588Z,10.27
2018-02-19T13:55:19.980Z,16.73
2018-02-19T13:57:50.093Z,17.23
2018-02-19T14:00:20.987Z,14.20
2018-02-19T14:02:50.831Z,25.80
2018-02-19T14:05:20.391Z,9.87
2018-02-19T14:07:50.278Z,17.97
2018-02-19T14:10:20.313Z,12.13
2018-02-19T14:12:49.723Z,23.23
2018-02-19T14:15:20.254Z,22.80
2018-02-19T14:17:50.592Z,26.13
2018-02-19T14:20:20.036Z,13.33
2018-02-19T14:22:50.794Z,21.10
2018-02-19T14:25:20.304Z,20.17
2018-02-19T14:27:49.769Z,26.63
2018-02-19T14:30:19.536Z,13.47
2018-02-19T14:32:48.974Z,19.30
2018-02-19T14:35:18.430Z,27.03
2018-02-19T14:37:48.192Z,13.63
2018-02-19T14:40:17.964Z,28.90
2018-02-19T14:42:51.000Z,16.00
2018-02-19T14:45:22.205Z,17.83
2018-02-19T14:47:51.669Z,11.20
2018-02-19T14:50:21.147Z,17.33
2018-02-19T14:52:50.909Z,18.70
2018-02-19T14:55:20.314Z,14.23
2018-02-19T14:57:51.962Z,13.83
2018-02-19T15:00:21.723Z,16.60
2018-02-19T15:02:51.190Z,24.87
2018-02-19T15:05:21.124Z,13.13
2018-02-19T15:07:52.489Z,15.43
2018-02-19T15:10:21.996Z,11.43
2018-02-19T15:12:51.521Z,20.30
2018-02-19T15:15:21.451Z,15.43
2018-02-19T15:17:50.969Z,14.03
2018-02-19T15:20:20.499Z,11.90
2018-02-19T15:22:51.106Z,14.23
2018-02-19T15:25:20.566Z,16.33
2018-02-19T15:27:50.712Z,14.90
2018-02-19T15:30:21.022Z,16.37
2018-02-19T15:32:51.397Z,16.97
2018-02-19T15:35:20.815Z,15.00
2018-02-19T15:37:50.614Z,15.93
2018-02-19T15:40:19.994Z,16.37
2018-02-19T15:42:51.216Z,11.73
2018-02-19T15:45:21.246Z,13.37
2018-02-19T15:47:51.115Z,15.70
2018-02-19T15:50:20.619Z,13.13
2018-02-19T15:52:50.378Z,18.03
2018-02-19T15:55:20.427Z,22.77
2018-02-19T15:57:49.839Z,19.83
2018-02-19T16:00:19.843Z,17.50
2018-02-19T16:02:49.295Z,33.83
2018-02-19T16:05:18.883Z,37.75
2018-02-19T16:07:48.659Z,32.97
2018-02-19T16:10:18.069Z,25.93
2018-02-19T16:12:47.503Z,32.65
2018-02-19T16:15:17.275Z,30.65
2018-02-19T16:17:47.036Z,34.28
2018-02-19T16:20:16.487Z,20.98
2018-02-19T16:22:46.405Z,19.90
2018-02-19T16:25:16.125Z,23.38
2018-02-19T16:27:45.934Z,18.37
2018-02-19T16:30:15.960Z,19.12
2018-02-19T16:32:45.338Z,15.93
2018-02-19T16:35:14.828Z,14.35
2018-02-19T16:37:44.608Z,13.50
2018-02-19T16:40:14.285Z,14.10
2018-02-19T16:42:44.710Z,14.77
2018-02-19T16:45:14.518Z,14.40
2018-02-19T16:47:44.068Z,15.88
2018-02-19T16:50:13.794Z,15.05
2018-02-19T16:52:48.443Z,15.98
2018-02-19T16:55:22.649Z,15.13
2018-02-19T16:57:52.570Z,14.18
2018-02-19T17:00:23.796Z,16.65
2018-02-19T17:02:53.453Z,19.95
2018-02-19T17:05:23.945Z,22.45
2018-02-19T17:07:53.686Z,18.70
2018-02-19T17:10:23.287Z,18.98
2018-02-19T17:12:52.725Z,19.45
2018-02-19T17:15:22.264Z,18.20
2018-02-19T17:17:52.444Z,14.82
2018-02-19T17:20:22.059Z,17.00
2018-02-19T17:22:52.394Z,19.37
2018-02-19T17:25:23.518Z,16.55
2018-02-19T17:27:53.450Z,16.05
2018-02-19T17:30:22.939Z,16.92
2018-02-19T17:32:52.615Z,16.35
2018-02-19T17:35:22.251Z,18.87
2018-02-19T17:37:53.881Z,15.38
2018-02-19T17:40:23.409Z,15.07
2018-02-19T17:42:53.118Z,15.68
2018-02-19T17:45:23.190Z,19.87
2018-02-19T17:47:52.692Z,16.75
2018-02-19T17:50:22.127Z,13.70
2018-02-19T17:52:52.579Z,14.65
2018-02-19T17:55:22.161Z,15.27
2018-02-19T17:57:51.930Z,15.48
2018-02-19T18:00:21.869Z,15.80
2018-02-19T18:02:51.377Z,17.65
2018-02-19T18:05:21.569Z,17.52
2018-02-19T18:07:51.190Z,17.48
2018-02-19T18:10:21.101Z,16.52
2018-02-19T18:12:51.680Z,16.42
2018-02-19T18:15:21.653Z,16.23
2018-02-19T18:17:53.379Z,18.05
2018-02-19T18:20:23.536Z,15.15
2018-02-19T18:22:57.302Z,16.08
2018-02-19T18:25:26.811Z,17.20
2018-02-19T18:27:56.941Z,21.37
2018-02-19T18:30:26.768Z,19.50
2018-02-19T18:32:56.148Z,17.30
2018-02-19T18:35:25.987Z,18.58
2018-02-19T18:37:55.657Z,21.20
2018-02-19T18:40:25.465Z,33.70
2018-02-19T18:42:59.535Z,31.35
2018-02-19T18:45:29.044Z,27.30
2018-02-19T18:47:59.452Z,21.73
2018-02-19T18:50:29.290Z,29.23
2018-02-19T18:53:00.568Z,29.87
2018-02-19T18:55:30.278Z,26.33
2018-02-19T18:57:59.779Z,26.05
2018-02-19T19:00:29.370Z,26.30
2018-02-19T19:02:59.321Z,26.95
2018-02-19T19:05:29.154Z,24.65
2018-02-19T19:10:13.190Z,26.50
2018-02-19T19:12:42.918Z,25.90
2018-02-19T19:15:12.545Z,28.62
2018-02-19T19:17:42.201Z,26.87
2018-02-19T19:20:12.880Z,27.45
2018-02-19T19:22:42.450Z,23.77
2018-02-19T19:25:12.186Z,25.15
2018-02-19T19:27:41.657Z,22.45
2018-02-19T19:30:11.797Z,22.73
2018-02-19T19:32:41.348Z,23.25
2018-02-19T19:35:11.726Z,22.40
2018-02-19T19:37:41.307Z,23.27
2018-02-19T19:40:11.402Z,22.35
2018-02-19T19:42:40.964Z,22.65
2018-02-19T19:45:10.596Z,22.62
2018-02-19T19:47:40.052Z,23.08
2018-02-19T19:50:09.944Z,22.90
2018-02-19T19:52:39.632Z,21.83
2018-02-19T19:55:09.205Z,21.85
2018-02-19T19:57:39.071Z,24.02
2018-02-19T20:00:09.965Z,21.80
2018-02-19T20:02:39.575Z,21.92
2018-02-19T20:05:09.385Z,20.20
2018-02-19T20:07:38.991Z,21.85
2018-02-19T20:10:08.960Z,22.67
2018-02-19T20:12:38.918Z,23.12
2018-02-19T20:15:10.197Z,21.45
2018-02-19T20:17:39.828Z,22.40
2018-02-19T20:20:09.375Z,24.08
2018-02-19T20:22:38.959Z,23.20
2018-02-19T20:25:09.518Z,24.02
2018-02-19T20:27:39.351Z,24.92
2018-02-19T20:30:09.208Z,23.83
2018-02-19T20:32:39.162Z,23.08
2018-02-19T20:35:08.927Z,23.23
2018-02-19T20:37:38.656Z,23.25
2018-02-19T20:40:08.713Z,23.58
2018-02-19T20:42:38.569Z,24.87
2018-02-19T20:45:10.314Z,22.83
2018-02-19T20:47:40.137Z,24.98
2018-02-19T20:50:12.375Z,24.87
2018-02-19T20:52:41.985Z,24.12
2018-02-19T20:55:11.934Z,26.35
2018-02-19T20:57:41.407Z,24.65
2018-02-19T21:00:11.135Z,26.42
2018-02-19T21:02:40.897Z,24.90
2018-02-19T21:05:10.463Z,26.05
2018-02-19T21:07:40.357Z,25.12
2018-02-19T21:10:10.439Z,27.08
2018-02-19T21:12:39.959Z,25.30
2018-02-19T21:15:11.620Z,26.67
2018-02-19T21:17:41.416Z,26.98
2018-02-19T21:20:11.616Z,26.10
2018-02-19T21:22:41.262Z,26.27
2018-02-19T21:25:11.559Z,25.85
2018-02-19T21:27:41.309Z,25.67
2018-02-19T21:30:11.503Z,25.58
2018-02-19T21:32:41.815Z,26.75
2018-02-19T21:35:12.377Z,25.12
2018-02-19T21:37:41.965Z,26.12
2018-02-19T21:40:14.006Z,23.20
2018-02-19T21:42:43.519Z,28.60
2018-02-19T21:45:13.475Z,25.02
2018-02-19T21:47:44.571Z,26.25
2018-02-19T21:50:14.235Z,26.00
2018-02-19T21:52:43.781Z,27.60
2018-02-19T21:55:13.999Z,25.17
2018-02-19T21:57:43.588Z,25.70
2018-02-19T22:00:14.985Z,26.00
2018-02-19T22:02:45.018Z,27.00
2018-02-19T22:05:14.673Z,25.52
2018-02-19T22:07:44.486Z,26.27
2018-02-19T22:10:14.261Z,25.85
2018-02-19T22:12:44.116Z,25.45
2018-02-19T22:15:13.741Z,26.35
2018-02-19T22:17:43.574Z,25.05
2018-02-19T22:20:13.132Z,25.65
2018-02-19T22:22:42.705Z,25.80
2018-02-19T22:25:13.047Z,28.50
2018-02-19T22:27:43.383Z,25.00
2018-02-19T22:30:13.534Z,26.80
2018-02-19T22:32:44.051Z,26.73
2018-02-19T22:35:13.665Z,25.12
2018-02-19T22:37:43.933Z,25.15
2018-02-19T22:40:14.058Z,27.00
2018-02-19T22:42:43.842Z,28.08
2018-02-19T22:45:13.443Z,26.48
2018-02-19T22:47:43.677Z,25.35
2018-02-19T22:50:15.433Z,25.83
2018-02-19T22:52:45.565Z,25.45
2018-02-19T22:55:17.884Z,26.23
2018-02-19T22:57:49.087Z,26.55
2018-02-19T23:00:22.539Z,25.95
2018-02-19T23:02:52.794Z,25.95
2018-02-19T23:05:24.639Z,26.85
2018-02-19T23:07:55.458Z,26.67
2018-02-19T23:10:25.606Z,25.70
2018-02-19T23:12:56.146Z,25.17
2018-02-19T23:15:27.166Z,25.77
2018-02-19T23:17:57.511Z,25.50
2018-02-19T23:20:27.245Z,30.20
2018-02-19T23:22:57.806Z,25.40
2018-02-19T23:25:27.510Z,26.35
2018-02-19T23:27:58.011Z,25.80
2018-02-19T23:30:27.820Z,24.23
2018-02-19T23:32:57.838Z,23.08
2018-02-19T23:35:27.800Z,23.27
2018-02-19T23:37:57.626Z,22.17
2018-02-19T23:40:27.217Z,22.85
2018-02-19T23:42:58.940Z,22.15
2018-02-19T23:45:29.358Z,21.90
2018-02-19T23:47:58.927Z,22.83
2018-02-19T23:50:29.116Z,22.37
2018-02-19T23:52:59.281Z,22.25
2018-02-19T23:55:29.207Z,23.30
2018-02-19T23:57:59.027Z,23.12
